Aeroporto :
LOGIN :

Iscrizione | Disclaimer

   EN    FR    IT 

 










Sommario :    VFR   VFR Marginale   IFR   IFR Intensivo   IFR Molto Intensivo
Visibilità : 
Base nubi : 
>= 8 km
>= 3000ft
5 / 8 km
1000 / 3000 ft
1500m / 5 km
500 / 1000 ft
800 / 1500m
200 / 500 ft
< 800m
< 200 ft
Simboli :   Temporali  Nebbia  Neve Forte  Precipitazioni Forti  Vento > 20 kt
SIGMETs :   Varie  Temporali  Ghiacco  Turbolenza  Onda orograficha  Ceneri Vulcaniche







- Altitudine del aeroporto : 286 ft
- Codice IATA : TRF


ENTO - Sandefjord , Torp

ULTIMO METAR :
  • 170720Z 21011KT CAVOK 16/08 Q1016 NOSIG

METARs OBSOLETI :
  • 170650Z 22010KT 190V250 CAVOK 16/08 Q1016 NOSIG
  • 170620Z 23009KT CAVOK 15/09 Q1016 NOSIG
  • 170550Z 24007KT CAVOK 14/09 Q1016 NOSIG
  • 170520Z 24007KT CAVOK 14/08 Q1016 NOSIG
  • 170450Z 23009KT CAVOK 13/08 Q1016 NOSIG

TAF TAF ENTO
Valido dal 17 a 06 ore il 18 a 06 ore UTC


1706/1806 20010KT CAVOK
TEMPO 1710/1717 19015G25KT
PROB30 1721/1806 BKN003
Nessun NOTAM noto per questo aeroporto.



MetMap, La meteo Aeronautica in un colpo d'occhio ! - Copyright ORBIFLY Dicembre 2007 - Disclaimer

ORBIFLY MET'MAP TEAM :

Programmazione e sviluppo : Alexandra Zaïnal
Concezione e sviluppo : Baudouin d'Aumeries
Co-Programmazione e sviluppo : Marc-Olivier Méhu
Supporto tecnico e logistico : Manuel Goepfert
Aiuto per la traduzione : Arnaldo La Scala

Contatto : metmap@orbifly.com




FONTI E CREDITI :

   NOAA